Time;durP1;ratioP1;P1;durP2;ratioP2;P2;SDS_P1;SDS_P2;PMS_P1;PMS_P2;Temp;Humidity;BMP_temperature;BMP_pressure;BME280_temperature;BME280_humidity;BME280_pressure;Samples;Min_cycle;Max_cycle;Signal;HPM_P1;HPM_P2
2021/03/17 00:01:40;;;;;;;40.45;22.27;;;;;;;2.13;81.75;99761.11;254899;1104;114761;-66
2021/03/17 00:06:45;;;;;;;34.90;18.77;;;;;;;2.12;83.30;99762.92;254953;1105;114874;-66
2021/03/17 00:11:50;;;;;;;33.53;23.70;;;;;;;2.12;83.54;99770.81;254913;1105;114641;-67
2021/03/17 00:16:53;;;;;;;36.35;22.32;;;;;;;2.11;82.12;99771.00;254982;1104;114843;-66
2021/03/17 00:21:56;;;;;;;39.35;21.15;;;;;;;2.15;83.46;99770.43;255114;1104;114982;-66
2021/03/17 00:26:59;;;;;;;35.65;20.25;;;;;;;2.14;83.34;99776.69;254809;1104;115553;-67
2021/03/17 00:32:02;;;;;;;37.98;23.40;;;;;;;2.11;83.26;99765.73;254165;1104;115205;-66
2021/03/17 00:37:06;;;;;;;38.42;21.35;;;;;;;2.08;82.52;99779.23;253280;1105;114671;-66
2021/03/17 00:42:09;;;;;;;43.65;23.75;;;;;;;2.06;83.62;99774.16;252410;1105;115149;-67
2021/03/17 00:47:13;;;;;;;48.63;25.55;;;;;;;2.12;82.29;99783.97;253427;1105;115980;-66
2021/03/17 00:52:16;;;;;;;40.52;24.18;;;;;;;2.09;82.91;99768.55;253110;1104;115578;-67
2021/03/17 00:57:20;;;;;;;44.73;25.33;;;;;;;2.04;82.12;99768.26;252959;1105;114857;-67
2021/03/17 01:02:24;;;;;;;39.10;21.35;;;;;;;2.00;82.09;99769.61;253724;1104;114705;-67
2021/03/17 01:07:28;;;;;;;50.00;27.40;;;;;;;1.99;82.51;99767.97;253615;1104;115859;-67
2021/03/17 01:12:32;;;;;;;35.95;18.80;;;;;;;1.93;82.56;99763.42;253388;1105;115937;-66
2021/03/17 01:17:36;;;;;;;48.08;25.37;;;;;;;1.99;82.46;99754.83;252277;1105;116031;-66
2021/03/17 01:22:40;;;;;;;42.53;22.07;;;;;;;1.95;82.79;99762.25;252079;1105;116278;-65
2021/03/17 01:27:44;;;;;;;44.25;25.17;;;;;;;1.86;82.66;99759.86;253120;1105;116402;-66
2021/03/17 01:32:50;;;;;;;51.95;25.97;;;;;;;1.87;82.74;99759.69;252370;1104;116505;-66
2021/03/17 01:37:55;;;;;;;55.43;25.55;;;;;;;1.88;82.80;99765.76;253158;1104;115559;-66
2021/03/17 01:42:59;;;;;;;45.77;23.67;;;;;;;1.84;82.32;99759.22;253456;1105;218602;-66
2021/03/17 01:48:03;;;;;;;42.67;20.30;;;;;;;1.79;82.32;99766.84;253127;1104;115886;-65
2021/03/17 01:53:11;;;;;;;55.52;27.45;;;;;;;1.73;82.71;99768.37;253523;1104;116541;-66
2021/03/17 01:58:18;;;;;;;49.57;25.17;;;;;;;1.74;83.50;99763.92;253287;1105;115912;-67
2021/03/17 02:03:21;;;;;;;49.57;25.60;;;;;;;1.60;84.10;99763.69;252931;1105;115799;-66
2021/03/17 02:08:36;;;;;;;49.85;24.60;;;;;;;1.60;83.67;99763.69;253997;1104;115345;-65
2021/03/17 02:13:42;;;;;;;55.30;27.82;;;;;;;1.56;83.59;99775.55;254333;1104;115006;-66
2021/03/17 02:19:05;;;;;;;31.27;19.98;;;;;;;1.60;83.51;99771.58;255059;1105;114871;-66
2021/03/17 02:24:14;;;;;;;27.05;14.50;;;;;;;1.51;84.18;99770.02;254575;1105;116979;-66
2021/03/17 02:29:27;;;;;;;35.95;18.82;;;;;;;1.45;84.31;99760.21;254484;1105;115788;-65
2021/03/17 02:34:38;;;;;;;35.13;15.60;;;;;;;1.41;82.88;99773.86;254934;1104;116398;-66
2021/03/17 02:39:46;;;;;;;53.50;25.77;;;;;;;1.39;83.47;99775.84;254799;1104;116024;-66
2021/03/17 02:45:13;;;;;;;50.35;24.87;;;;;;;1.47;83.70;99771.36;254259;1104;117186;-66
2021/03/17 02:50:18;;;;;;;44.20;22.55;;;;;;;1.44;83.43;99784.84;254965;1104;117061;-66
2021/03/17 02:55:24;;;;;;;54.18;28.52;;;;;;;1.42;83.87;99776.31;254017;1105;116547;-66
2021/03/17 03:00:30;;;;;;;50.52;25.82;;;;;;;1.45;83.36;99778.59;253139;1105;116482;-66
2021/03/17 03:05:35;;;;;;;52.58;25.57;;;;;;;1.45;84.27;99788.28;252933;1104;116320;-67
2021/03/17 03:10:41;;;;;;;35.40;19.63;;;;;;;1.34;83.36;99790.31;252190;1105;115251;-66
2021/03/17 03:15:45;;;;;;;54.37;27.53;;;;;;;1.29;83.70;99795.27;253437;1104;115452;-65
2021/03/17 03:20:50;;;;;;;55.95;24.82;;;;;;;1.30;83.34;99783.77;251581;1105;116784;-65
2021/03/17 03:25:56;;;;;;;52.53;25.97;;;;;;;1.24;83.99;99794.95;252153;1105;117182;-65
2021/03/17 03:31:00;;;;;;;28.15;13.98;;;;;;;1.07;84.27;99803.93;251288;1105;115735;-65
2021/03/17 03:36:05;;;;;;;50.70;23.98;;;;;;;1.01;84.55;99810.67;251141;1105;115718;-66
2021/03/17 03:41:08;;;;;;;47.88;22.50;;;;;;;0.88;85.31;99799.92;252856;1104;117088;-66
2021/03/17 03:46:12;;;;;;;33.63;15.08;;;;;;;0.67;84.94;99810.97;252959;1105;116597;-65
2021/03/17 03:51:19;;;;;;;54.75;24.60;;;;;;;0.71;85.57;99813.27;251200;1105;118230;-65
2021/03/17 03:56:30;;;;;;;30.30;15.70;;;;;;;0.64;86.15;99813.11;253468;1104;117550;-66
2021/03/17 04:02:10;;;;;;;57.23;23.25;;;;;;;0.68;85.27;99815.23;253138;1104;116902;-66
2021/03/17 04:07:16;;;;;;;52.27;24.33;;;;;;;0.67;86.15;99829.34;253749;1105;115936;-66
2021/03/17 04:12:23;;;;;;;52.25;23.02;;;;;;;0.82;85.48;99820.78;252831;1105;115799;-65
2021/03/17 04:17:48;;;;;;;48.70;21.05;;;;;;;0.86;85.54;99822.08;252896;1105;114684;-65
2021/03/17 04:22:55;;;;;;;44.50;24.40;;;;;;;0.75;85.72;99825.06;254792;1105;115256;-65
2021/03/17 04:28:01;;;;;;;63.80;29.96;;;;;;;0.83;85.40;99833.73;254944;1104;115810;-65
2021/03/17 04:33:06;;;;;;;50.70;27.70;;;;;;;0.78;84.63;99828.17;254937;1104;114960;-66
2021/03/17 04:38:14;;;;;;;31.15;14.20;;;;;;;0.68;84.26;99832.78;254830;1105;115077;-66
2021/03/17 04:43:18;;;;;;;53.58;22.73;;;;;;;0.54;84.96;99836.94;254270;1105;116417;-66
2021/03/17 04:48:23;;;;;;;38.28;19.48;;;;;;;0.60;84.57;99845.94;253838;1105;116720;-65
2021/03/17 04:53:27;;;;;;;36.17;15.30;;;;;;;0.54;83.94;99855.30;254333;1105;116489;-66
2021/03/17 04:58:32;;;;;;;38.25;19.57;;;;;;;0.53;84.45;99860.70;252223;1105;117585;-65
2021/03/17 05:03:37;;;;;;;23.10;12.30;;;;;;;0.33;85.39;99855.80;253600;1105;224718;-65
2021/03/17 05:08:44;;;;;;;13.87;8.47;;;;;;;0.00;85.60;99867.31;254093;1104;114709;-66
2021/03/17 05:13:49;;;;;;;17.27;8.17;;;;;;;-0.14;86.55;99881.05;253211;1105;115537;-66
2021/03/17 05:18:54;;;;;;;24.45;12.30;;;;;;;-0.23;87.51;99876.77;252726;1105;115721;-65
2021/03/17 05:23:58;;;;;;;13.88;6.65;;;;;;;-0.42;88.17;99883.95;252497;1105;115845;-65
2021/03/17 05:29:02;;;;;;;7.63;4.57;;;;;;;-0.48;88.68;99884.59;253103;1104;114789;-66
2021/03/17 05:34:05;;;;;;;23.60;11.22;;;;;;;-0.44;88.61;99877.23;252790;1105;114664;-66
2021/03/17 05:39:09;;;;;;;8.95;5.20;;;;;;;-0.46;88.94;99882.62;253473;1104;114887;-63
2021/03/17 05:44:14;;;;;;;29.37;13.20;;;;;;;-0.31;89.38;99879.40;253276;1104;115389;-63
2021/03/17 05:49:19;;;;;;;22.90;11.43;;;;;;;-0.23;88.96;99877.59;253107;1105;115237;-66
2021/03/17 05:54:24;;;;;;;13.48;7.60;;;;;;;-0.15;88.45;99882.84;253616;1105;115389;-66
2021/03/17 05:59:30;;;;;;;19.87;12.13;;;;;;;-0.08;88.00;99891.70;252171;1104;115660;-67
2021/03/17 06:04:38;;;;;;;26.70;13.75;;;;;;;0.14;87.55;99889.41;253304;1105;115009;-64
2021/03/17 06:09:44;;;;;;;8.88;5.37;;;;;;;0.11;87.25;99905.47;254438;1105;116173;-67
2021/03/17 06:14:51;;;;;;;25.17;13.25;;;;;;;0.19;87.38;99898.43;254910;1104;114889;-65
2021/03/17 06:20:08;;;;;;;18.90;10.70;;;;;;;0.37;86.74;99905.29;254616;1105;114838;-68
2021/03/17 06:25:11;;;;;;;17.93;9.17;;;;;;;0.50;85.94;99918.73;254290;1105;115991;-68
2021/03/17 06:30:14;;;;;;;24.47;12.05;;;;;;;0.68;86.60;99927.23;254556;1105;115416;-65
2021/03/17 06:35:22;;;;;;;19.92;11.05;;;;;;;0.85;86.38;99918.36;254754;1104;116143;-65
2021/03/17 06:40:35;;;;;;;18.48;9.48;;;;;;;0.96;85.52;99922.41;254824;1104;116036;-67
2021/03/17 06:45:46;;;;;;;16.95;9.65;;;;;;;0.99;84.46;99935.20;254379;1105;115254;-66
2021/03/17 06:51:19;;;;;;;20.37;9.75;;;;;;;1.20;84.01;99932.86;254627;1104;116300;-65
2021/03/17 06:56:35;;;;;;;16.42;8.55;;;;;;;1.36;83.40;99929.34;254645;1104;115192;-63
2021/03/17 07:01:43;;;;;;;15.55;8.25;;;;;;;1.46;83.54;99929.14;254772;1104;115789;-63
2021/03/17 07:07:09;;;;;;;12.35;7.67;;;;;;;1.50;82.49;99936.52;254842;1105;115369;-66
2021/03/17 07:12:13;;;;;;;17.02;10.35;;;;;;;1.64;81.67;99927.06;254574;1105;114735;-65
2021/03/17 07:17:24;;;;;;;13.00;8.43;;;;;;;1.77;81.67;99932.59;254692;1105;115472;-65
2021/03/17 07:22:28;;;;;;;17.12;11.35;;;;;;;1.98;81.28;99934.59;254615;1104;137787;-66
2021/03/17 07:27:33;;;;;;;15.08;9.60;;;;;;;2.08;80.00;99935.19;254758;1105;115175;-67
2021/03/17 07:32:58;;;;;;;14.45;8.63;;;;;;;2.16;80.02;99940.37;252458;1105;115140;-67
2021/03/17 07:38:05;;;;;;;11.33;6.40;;;;;;;2.24;79.32;99940.32;253169;1104;115451;-65
2021/03/17 07:43:09;;;;;;;15.28;7.87;;;;;;;2.39;79.08;99943.02;254314;1104;115017;-66
2021/03/17 07:48:13;;;;;;;14.38;8.23;;;;;;;2.48;77.37;99941.11;253849;1104;120395;-66
2021/03/17 07:53:24;;;;;;;9.45;5.50;;;;;;;2.43;74.98;99940.85;252895;1104;116237;-67
2021/03/17 07:58:27;;;;;;;8.35;4.83;;;;;;;2.54;77.09;99938.59;253151;1105;118508;-64
2021/03/17 08:03:31;;;;;;;3.40;2.58;;;;;;;2.44;75.67;99945.13;254321;1105;115212;-65
2021/03/17 08:08:35;;;;;;;6.05;3.70;;;;;;;2.43;75.27;99948.75;251184;1105;115564;-64
2021/03/17 08:13:42;;;;;;;10.95;6.55;;;;;;;2.46;75.59;99953.63;253955;1105;116107;-65
2021/03/17 08:18:47;;;;;;;8.18;3.67;;;;;;;2.40;74.55;99947.28;254711;1104;117697;-64
2021/03/17 08:23:51;;;;;;;9.53;5.05;;;;;;;2.65;72.87;99940.81;252192;1105;116880;-67
2021/03/17 08:28:55;;;;;;;6.97;4.87;;;;;;;2.93;73.07;99941.03;254745;1104;115835;-67
2021/03/17 08:33:58;;;;;;;9.25;6.00;;;;;;;3.05;71.62;99944.05;254728;1104;118251;-67
2021/03/17 08:39:03;;;;;;;11.88;4.92;;;;;;;2.73;70.05;99950.45;254814;1104;116043;-63
2021/03/17 08:44:23;;;;;;;5.72;2.90;;;;;;;2.66;72.71;99950.34;254754;1104;115592;-64
2021/03/17 08:49:31;;;;;;;7.42;5.08;;;;;;;2.75;73.51;99952.91;255000;1104;115391;-64
2021/03/17 08:54:34;;;;;;;7.45;5.10;;;;;;;2.77;72.28;99938.55;254885;1105;117435;-64
2021/03/17 08:59:39;;;;;;;5.90;4.42;;;;;;;2.89;72.34;99949.47;254731;1104;118446;-65
2021/03/17 09:04:49;;;;;;;2.95;2.50;;;;;;;2.88;72.28;99955.73;254802;1104;117924;-65
2021/03/17 09:10:08;;;;;;;11.53;4.87;;;;;;;2.94;73.61;99958.47;254557;1104;115646;-65
2021/03/17 09:15:15;;;;;;;6.42;5.20;;;;;;;2.96;74.12;99959.11;254954;1105;114678;-65
2021/03/17 09:20:21;;;;;;;;;;;;;;;2.96;72.82;99971.45;253511;1104;115494;-66
2021/03/17 09:25:26;;;;;;;6.17;4.95;;;;;;;2.91;73.29;99966.72;254558;1105;103079;-65
2021/03/17 09:30:38;;;;;;;5.42;3.42;;;;;;;2.98;73.43;99969.46;251447;1105;115230;-66
2021/03/17 09:35:49;;;;;;;11.80;7.17;;;;;;;3.08;73.54;99964.73;252463;1105;116168;-65
2021/03/17 09:41:01;;;;;;;7.97;5.97;;;;;;;3.22;71.75;99969.20;254482;1104;116163;-65
2021/03/17 09:46:23;;;;;;;3.77;1.82;;;;;;;3.19;70.48;99972.20;251290;1104;115569;-65
2021/03/17 09:51:49;;;;;;;10.15;6.72;;;;;;;3.57;72.21;99966.83;252957;1104;116542;-64
2021/03/17 09:57:05;;;;;;;3.98;2.22;;;;;;;3.98;68.56;99967.09;253428;1105;117082;-65
2021/03/17 10:02:25;;;;;;;6.67;5.17;;;;;;;4.06;69.68;99972.25;251828;1105;116145;-65
2021/03/17 10:07:34;;;;;;;3.25;2.35;;;;;;;4.23;67.17;99965.75;253182;1105;115606;-64
2021/03/17 10:12:37;;;;;;;10.32;3.20;;;;;;;4.54;65.35;99957.52;251389;1105;115593;-65
2021/03/17 10:17:42;;;;;;;4.03;3.42;;;;;;;4.47;64.76;99976.93;253357;1105;116631;-65
2021/03/17 10:22:49;;;;;;;13.10;6.53;;;;;;;4.22;67.87;99969.39;252326;1105;116193;-64
2021/03/17 10:27:58;;;;;;;6.75;4.87;;;;;;;4.11;68.91;99972.52;253266;1105;116636;-65
2021/03/17 10:33:02;;;;;;;14.68;8.70;;;;;;;4.39;67.75;99976.05;253472;1104;115524;-65
2021/03/17 10:38:07;;;;;;;16.70;9.25;;;;;;;4.55;67.82;99968.89;253180;1105;115690;-65
2021/03/17 10:43:13;;;;;;;16.52;9.28;;;;;;;4.58;67.75;99966.69;254523;1105;117289;-65
2021/03/17 10:48:19;;;;;;;16.35;10.50;;;;;;;4.67;68.63;99972.63;254414;1105;118202;-63
2021/03/17 10:53:29;;;;;;;15.40;9.83;;;;;;;4.65;67.12;99958.80;254725;1105;116483;-65
2021/03/17 10:58:39;;;;;;;8.73;5.20;;;;;;;4.10;66.60;99965.60;254856;1104;117304;-68
2021/03/17 11:03:42;;;;;;;11.28;6.20;;;;;;;4.34;66.66;99965.23;254843;1104;115777;-66
2021/03/17 11:09:01;;;;;;;11.65;6.78;;;;;;;4.49;65.58;99957.26;254752;1105;116433;-63
2021/03/17 11:14:06;;;;;;;10.50;6.42;;;;;;;4.82;65.40;99959.35;255067;1105;117080;-67
2021/03/17 11:19:12;;;;;;;7.42;4.42;;;;;;;4.89;63.82;99958.38;254846;1105;116114;-65
2021/03/17 11:24:22;;;;;;;6.87;3.05;;;;;;;4.78;63.92;99956.27;254854;1105;115091;-65
2021/03/17 11:29:29;;;;;;;5.60;3.22;;;;;;;4.85;62.89;99970.36;254788;1104;117459;-66
2021/03/17 11:34:33;;;;;;;8.15;4.33;;;;;;;5.00;64.60;99963.13;254695;1105;116303;-65
2021/03/17 11:39:36;;;;;;;8.20;6.00;;;;;;;5.07;62.67;99961.36;254655;1104;117193;-66
2021/03/17 11:44:38;;;;;;;4.78;2.92;;;;;;;5.37;62.45;99961.94;254973;1104;115301;-68
2021/03/17 11:49:41;;;;;;;6.47;3.60;;;;;;;5.27;61.15;99963.30;254869;1104;115535;-69
2021/03/17 11:54:45;;;;;;;3.67;2.55;;;;;;;5.19;62.04;99961.65;254726;1105;115272;-69
2021/03/17 11:59:48;;;;;;;3.67;3.05;;;;;;;5.52;60.76;99960.98;254725;1104;115083;-68
2021/03/17 12:04:51;;;;;;;3.90;2.80;;;;;;;5.03;61.26;99952.18;254639;1104;115666;-66
2021/03/17 12:09:55;;;;;;;3.42;3.12;;;;;;;4.88;62.54;99958.59;255172;1105;114566;-69
2021/03/17 12:14:59;;;;;;;5.97;4.65;;;;;;;4.47;64.23;99958.45;254723;1104;115384;-66
2021/03/17 12:20:04;;;;;;;12.85;7.17;;;;;;;4.43;65.61;99970.39;254144;1104;115547;-65
2021/03/17 12:25:10;;;;;;;5.28;3.70;;;;;;;4.24;67.01;99967.39;254598;1105;115538;-67
2021/03/17 12:30:17;;;;;;;8.88;6.12;;;;;;;4.01;67.68;99974.62;255001;1105;115077;-65
2021/03/17 12:35:22;;;;;;;8.50;5.37;;;;;;;4.00;68.15;99976.45;255364;1104;116455;-66
2021/03/17 12:40:27;;;;;;;3.70;3.00;;;;;;;4.20;68.65;99970.59;254863;1105;116922;-65
2021/03/17 12:45:32;;;;;;;5.60;4.40;;;;;;;4.34;69.55;99975.78;254926;1104;116250;-65
2021/03/17 12:50:37;;;;;;;5.40;3.30;;;;;;;4.47;67.15;99972.47;254846;1104;115272;-66
2021/03/17 12:55:41;;;;;;;4.30;2.80;;;;;;;4.68;66.74;99966.34;255039;1105;116928;-66
2021/03/17 13:00:45;;;;;;;4.10;3.02;;;;;;;4.84;66.09;99973.19;254698;1105;117217;-69
2021/03/17 13:05:48;;;;;;;6.05;4.28;;;;;;;5.24;64.10;99966.33;254750;1104;115136;-64
2021/03/17 13:10:51;;;;;;;4.85;3.65;;;;;;;4.96;63.57;99975.09;252587;1105;116135;-66
2021/03/17 13:15:54;;;;;;;7.00;4.17;;;;;;;4.96;65.49;99977.73;254583;1105;117392;-65
2021/03/17 13:20:57;;;;;;;5.03;3.95;;;;;;;5.00;64.29;99981.62;254791;1105;115021;-68
2021/03/17 13:26:00;;;;;;;7.67;4.28;;;;;;;5.17;65.31;99968.95;254683;1104;114802;-69
2021/03/17 13:31:04;;;;;;;7.62;4.42;;;;;;;5.48;63.67;99976.45;254866;1104;115374;-66
2021/03/17 13:36:07;;;;;;;8.10;5.53;;;;;;;5.54;62.67;99974.82;254956;1104;116144;-64
2021/03/17 13:41:11;;;;;;;17.37;10.72;;;;;;;5.38;60.19;99965.40;254976;1105;115921;-65
2021/03/17 13:46:17;;;;;;;6.33;5.12;;;;;;;5.08;62.22;99980.67;254014;1105;116251;-67
2021/03/17 13:51:25;;;;;;;16.15;9.03;;;;;;;4.85;61.75;99970.36;253519;1104;118158;-63
2021/03/17 13:56:34;;;;;;;4.30;3.70;;;;;;;4.78;61.62;99985.33;254449;1105;115735;-64
2021/03/17 14:01:38;;;;;;;5.12;4.62;;;;;;;4.58;63.77;99995.73;252775;1105;117373;-66
2021/03/17 14:06:41;;;;;;;4.65;2.87;;;;;;;4.66;62.70;99989.48;252717;1104;115347;-64
2021/03/17 14:11:44;;;;;;;4.10;3.55;;;;;;;4.71;62.62;99984.45;254276;1105;117037;-64
2021/03/17 14:16:48;;;;;;;3.12;2.60;;;;;;;4.84;62.32;99989.84;254050;1105;116163;-62
2021/03/17 14:21:51;;;;;;;3.05;2.77;;;;;;;4.80;61.43;99996.52;252295;1105;116226;-63
2021/03/17 14:26:58;;;;;;;1.98;1.82;;;;;;;4.61;62.15;99987.41;254592;1104;116200;-64
2021/03/17 14:32:02;;;;;;;3.42;3.12;;;;;;;4.65;60.86;99990.48;254533;1104;115782;-63
2021/03/17 14:37:07;;;;;;;7.35;3.72;;;;;;;4.67;62.74;100002.49;252094;1105;116841;-62
2021/03/17 14:42:11;;;;;;;1.40;1.30;;;;;;;4.47;60.56;100003.33;251749;1105;116407;-62
2021/03/17 14:47:18;;;;;;;4.92;2.72;;;;;;;4.44;62.37;99999.23;252949;1105;116397;-62
2021/03/17 14:52:25;;;;;;;6.28;3.08;;;;;;;4.35;62.67;100006.45;252485;1105;116078;-63
2021/03/17 14:57:47;;;;;;;7.28;3.95;;;;;;;4.37;62.54;100020.28;251370;1105;118149;-62
2021/03/17 15:02:51;;;;;;;2.47;1.22;;;;;;;4.23;62.03;100010.61;253814;1105;115525;-64
2021/03/17 15:07:55;;;;;;;4.20;3.08;;;;;;;4.30;62.50;100016.75;252069;1105;118652;-65
2021/03/17 15:12:58;;;;;;;7.58;3.33;;;;;;;4.33;63.23;100013.73;253376;1104;115965;-66
2021/03/17 15:18:02;;;;;;;3.20;1.90;;;;;;;4.24;62.74;100019.34;252764;1105;116289;-65
2021/03/17 15:23:06;;;;;;;3.65;2.72;;;;;;;4.15;65.33;100036.28;254483;1104;116158;-65
2021/03/17 15:28:14;;;;;;;3.50;2.02;;;;;;;4.05;63.75;100041.84;254849;1104;116607;-65
2021/03/17 15:33:18;;;;;;;3.17;2.72;;;;;;;4.03;63.00;100043.84;254901;1105;116014;-65
2021/03/17 15:38:21;;;;;;;3.67;3.37;;;;;;;4.02;64.81;100052.77;254860;1104;116920;-65
2021/03/17 15:43:30;;;;;;;4.35;3.92;;;;;;;4.09;64.21;100048.39;254714;1104;115369;-65
2021/03/17 15:48:32;;;;;;;3.72;2.62;;;;;;;4.09;64.46;100052.84;254667;1104;116440;-65
2021/03/17 15:53:38;;;;;;;3.45;2.60;;;;;;;3.94;64.91;100056.34;254465;1104;115834;-66
2021/03/17 15:58:41;;;;;;;5.47;3.77;;;;;;;3.91;64.70;100061.98;252839;1104;116030;-65
2021/03/17 16:03:44;;;;;;;4.65;2.42;;;;;;;3.78;64.91;100067.06;254977;1104;116048;-65
2021/03/17 16:08:47;;;;;;;2.22;2.02;;;;;;;3.64;65.59;100070.55;252215;1104;117225;-65
2021/03/17 16:13:53;;;;;;;2.47;2.17;;;;;;;3.63;64.31;100079.45;252197;1105;115937;-65
2021/03/17 16:18:56;;;;;;;5.80;3.27;;;;;;;3.66;66.12;100082.55;253080;1105;115351;-64
2021/03/17 16:24:02;;;;;;;4.85;3.50;;;;;;;3.53;64.14;100086.80;253411;1105;115649;-65
2021/03/17 16:29:04;;;;;;;5.80;2.55;;;;;;;3.52;65.08;100093.88;252130;1105;115957;-65
2021/03/17 16:34:07;;;;;;;6.00;2.98;;;;;;;3.41;66.36;100096.12;252872;1105;115307;-65
2021/03/17 16:39:10;;;;;;;3.75;2.17;;;;;;;3.34;65.89;100090.78;252412;1105;115538;-65
2021/03/17 16:44:13;;;;;;;4.42;3.47;;;;;;;3.31;65.01;100102.49;252451;1105;114665;-64
2021/03/17 16:49:18;;;;;;;5.45;3.98;;;;;;;3.35;66.25;100108.23;253781;1104;115751;-64
2021/03/17 16:54:23;;;;;;;5.00;2.75;;;;;;;3.33;65.84;100110.22;253586;1104;114274;-65
2021/03/17 16:59:30;;;;;;;5.10;2.55;;;;;;;3.30;65.63;100118.48;251586;1104;114695;-69
2021/03/17 17:04:35;;;;;;;7.12;4.08;;;;;;;3.24;66.51;100127.09;252770;1105;115259;-65
2021/03/17 17:09:39;;;;;;;3.05;2.30;;;;;;;3.20;65.33;100131.89;253487;1105;115540;-64
2021/03/17 17:14:44;;;;;;;3.83;2.90;;;;;;;3.21;65.23;100135.34;254673;1104;115677;-62
2021/03/17 17:19:47;;;;;;;7.22;2.83;;;;;;;3.13;65.71;100135.40;254277;1104;114668;-63
2021/03/17 17:24:50;;;;;;;7.10;4.33;;;;;;;3.18;66.88;100138.33;254903;1105;115905;-66
2021/03/17 17:29:53;;;;;;;4.47;2.90;;;;;;;3.08;66.39;100145.64;254340;1105;115236;-65
2021/03/17 17:34:57;;;;;;;5.72;3.62;;;;;;;3.04;66.89;100148.66;255244;1104;115486;-65
2021/03/17 17:40:08;;;;;;;5.20;3.60;;;;;;;3.01;66.63;100149.00;254538;1104;115103;-66
2021/03/17 17:45:12;;;;;;;3.02;1.98;;;;;;;2.97;66.60;100152.16;254490;1105;116001;-64
2021/03/17 17:50:17;;;;;;;9.60;4.75;;;;;;;3.01;66.58;100151.64;254162;1105;114993;-64
2021/03/17 17:55:20;;;;;;;5.80;4.58;;;;;;;3.01;67.44;100167.44;255148;1105;115706;-64
2021/03/17 18:00:24;;;;;;;8.63;4.50;;;;;;;3.02;67.17;100169.08;254612;1104;114870;-64
2021/03/17 18:05:29;;;;;;;4.30;2.52;;;;;;;2.95;65.70;100165.50;254837;1104;115390;-63
2021/03/17 18:10:31;;;;;;;3.70;2.85;;;;;;;2.81;67.16;100175.95;255304;1104;116699;-65
2021/03/17 18:15:35;;;;;;;7.00;3.90;;;;;;;2.86;66.79;100171.80;255000;1104;115771;-64
2021/03/17 18:20:38;;;;;;;15.28;6.67;;;;;;;2.89;66.93;100176.72;254689;1104;115122;-63
2021/03/17 18:25:41;;;;;;;5.83;4.05;;;;;;;2.85;66.38;100182.51;254980;1104;116368;-63
2021/03/17 18:30:45;;;;;;;6.55;3.40;;;;;;;2.84;67.29;100184.31;255032;1104;115176;-63
2021/03/17 18:35:49;;;;;;;6.65;4.80;;;;;;;2.77;67.73;100178.10;254558;1104;115822;-65
2021/03/17 18:40:52;;;;;;;7.65;6.83;;;;;;;2.76;66.50;100184.36;254907;1104;114898;-65
2021/03/17 18:45:57;;;;;;;11.18;6.17;;;;;;;2.80;67.85;100190.92;254742;1105;115459;-64
2021/03/17 18:51:01;;;;;;;9.63;5.92;;;;;;;2.85;69.05;100198.30;253677;1105;115369;-64
2021/03/17 18:56:05;;;;;;;6.40;3.40;;;;;;;2.81;68.08;100205.73;253263;1104;115118;-64
2021/03/17 19:01:09;;;;;;;7.03;4.33;;;;;;;2.77;67.44;100203.61;253963;1105;115569;-65
2021/03/17 19:06:11;;;;;;;8.13;5.20;;;;;;;2.76;67.84;100200.16;251958;1105;115169;-64
2021/03/17 19:11:14;;;;;;;7.65;4.40;;;;;;;2.74;67.25;100204.80;252685;1105;115423;-63
2021/03/17 19:16:18;;;;;;;10.40;4.60;;;;;;;2.64;67.89;100209.45;253436;1105;115150;-65
2021/03/17 19:21:25;;;;;;;4.67;3.43;;;;;;;2.55;68.63;100199.94;253244;1105;116725;-64
2021/03/17 19:26:29;;;;;;;5.50;4.30;;;;;;;2.56;68.41;100209.48;252780;1105;115596;-64
2021/03/17 19:31:33;;;;;;;7.10;4.00;;;;;;;2.56;69.09;100212.11;252563;1105;115315;-62
2021/03/17 19:36:39;;;;;;;6.95;4.20;;;;;;;2.52;68.73;100210.80;253911;1105;114744;-64
2021/03/17 19:41:44;;;;;;;6.72;4.40;;;;;;;2.44;69.29;100216.13;253129;1105;114590;-64
2021/03/17 19:46:47;;;;;;;7.28;5.30;;;;;;;2.46;70.16;100219.38;253923;1105;114552;-64
2021/03/17 19:51:51;;;;;;;6.97;4.80;;;;;;;2.39;70.12;100218.44;253720;1105;114858;-64
2021/03/17 19:56:55;;;;;;;6.10;3.75;;;;;;;2.29;69.50;100222.08;253871;1105;114960;-64
2021/03/17 20:01:59;;;;;;;6.72;4.58;;;;;;;2.24;69.97;100221.76;254679;1105;114613;-64
2021/03/17 20:07:07;;;;;;;13.83;6.20;;;;;;;2.26;69.98;100229.48;254578;1105;115439;-64
2021/03/17 20:12:11;;;;;;;7.45;4.97;;;;;;;2.33;70.22;100233.09;254573;1105;115213;-64
2021/03/17 20:17:14;;;;;;;3.72;2.87;;;;;;;2.20;68.60;100230.97;254444;1105;115082;-64
2021/03/17 20:22:18;;;;;;;8.10;5.08;;;;;;;2.18;68.42;100238.21;254624;1104;115400;-64
2021/03/17 20:27:24;;;;;;;8.85;5.08;;;;;;;2.16;68.32;100236.73;254646;1105;114857;-64
2021/03/17 20:32:28;;;;;;;5.08;3.65;;;;;;;2.17;67.71;100233.94;254470;1105;114600;-64
2021/03/17 20:37:31;;;;;;;7.03;2.77;;;;;;;2.17;67.54;100233.94;254601;1105;115301;-64
2021/03/17 20:42:35;;;;;;;5.90;3.55;;;;;;;2.08;67.49;100240.23;254297;1105;115259;-64
2021/03/17 20:47:39;;;;;;;7.95;3.70;;;;;;;1.97;68.41;100235.30;254454;1104;115061;-64
2021/03/17 20:52:44;;;;;;;9.27;3.87;;;;;;;1.91;68.13;100243.85;253303;1104;115615;-64
2021/03/17 20:57:48;;;;;;;6.78;3.70;;;;;;;1.89;68.32;100240.56;254719;1104;115849;-64
2021/03/17 21:02:56;;;;;;;9.80;5.42;;;;;;;1.81;67.01;100246.67;252581;1105;117073;-64
2021/03/17 21:08:00;;;;;;;12.58;4.62;;;;;;;1.71;69.37;100239.94;253336;1105;114693;-64
2021/03/17 21:13:06;;;;;;;4.80;3.22;;;;;;;1.60;70.16;100246.34;252015;1105;115986;-63
2021/03/17 21:18:11;;;;;;;11.75;7.55;;;;;;;1.66;69.60;100248.31;252768;1105;117478;-64
2021/03/17 21:23:15;;;;;;;6.75;3.60;;;;;;;1.57;70.77;100242.23;252197;1105;116452;-63
2021/03/17 21:28:19;;;;;;;8.50;4.00;;;;;;;1.57;70.08;100244.86;252506;1104;115913;-63
2021/03/17 21:33:24;;;;;;;12.40;5.10;;;;;;;1.46;70.91;100249.63;252190;1105;115294;-63
2021/03/17 21:38:28;;;;;;;5.55;3.77;;;;;;;1.40;70.85;100250.28;253474;1104;114861;-64
2021/03/17 21:43:32;;;;;;;6.05;4.10;;;;;;;1.44;69.89;100251.59;252673;1105;115739;-62
2021/03/17 21:48:36;;;;;;;3.58;2.62;;;;;;;1.34;70.89;100255.19;251615;1105;115537;-63
2021/03/17 21:53:40;;;;;;;11.85;5.37;;;;;;;1.31;71.14;100252.06;253583;1105;115262;-65
2021/03/17 21:58:43;;;;;;;6.12;5.00;;;;;;;1.27;71.32;100253.38;253669;1104;114902;-65
2021/03/17 22:03:47;;;;;;;5.37;3.17;;;;;;;1.20;71.11;100249.77;253654;1105;135808;-66
2021/03/17 22:08:50;;;;;;;8.58;5.40;;;;;;;1.14;70.59;100250.41;254365;1105;115287;-66
2021/03/17 22:13:53;;;;;;;8.48;4.10;;;;;;;1.05;70.73;100254.81;255164;1104;114702;-65
2021/03/17 22:18:57;;;;;;;9.18;4.40;;;;;;;0.94;70.66;100248.05;255026;1104;115524;-65
2021/03/17 22:24:00;;;;;;;10.32;4.40;;;;;;;0.82;70.28;100246.72;254709;1105;115066;-65
2021/03/17 22:29:05;;;;;;;9.93;3.62;;;;;;;0.70;70.50;100249.78;254654;1104;117032;-65
2021/03/17 22:34:09;;;;;;;10.53;4.12;;;;;;;0.61;70.44;100254.98;254724;1105;117397;-64
2021/03/17 22:39:12;;;;;;;15.18;4.12;;;;;;;0.56;70.54;100254.66;254815;1104;115680;-65
2021/03/17 22:44:16;;;;;;;7.42;3.55;;;;;;;0.36;71.73;100255.04;253745;1105;116423;-65
2021/03/17 22:49:20;;;;;;;6.77;4.57;;;;;;;0.28;72.20;100251.42;254418;1105;114492;-66
2021/03/17 22:54:23;;;;;;;8.53;4.00;;;;;;;0.21;72.75;100254.81;253977;1105;115669;-64
2021/03/17 22:59:27;;;;;;;8.28;3.80;;;;;;;0.14;73.45;100259.84;253746;1104;115159;-64
2021/03/17 23:04:31;;;;;;;7.42;4.15;;;;;;;0.05;72.86;100255.52;253190;1105;114786;-65
2021/03/17 23:09:46;;;;;;;7.78;4.30;;;;;;;-0.03;72.97;100268.59;253210;1104;114521;-63
2021/03/17 23:14:50;;;;;;;11.83;5.00;;;;;;;-0.10;73.17;100270.17;252288;1105;115914;-64
2021/03/17 23:19:54;;;;;;;8.63;5.65;;;;;;;-0.23;73.76;100265.32;253284;1105;115973;-64
2021/03/17 23:25:04;;;;;;;7.08;4.28;;;;;;;-0.36;74.54;100267.52;251913;1103;116617;-62